createdAt,value
2018-07-05T00:01:17.331Z,59.76
2018-07-05T00:03:43.748Z,59.59
2018-07-05T00:06:10.177Z,59.61
2018-07-05T00:08:36.587Z,59.56
2018-07-05T00:11:03.130Z,59.72
2018-07-05T00:13:29.511Z,59.61
2018-07-05T00:15:55.901Z,59.65
2018-07-05T00:18:22.424Z,59.57
2018-07-05T00:20:48.995Z,59.67
2018-07-05T00:23:15.498Z,59.52
2018-07-05T00:25:41.891Z,59.54
2018-07-05T00:28:08.263Z,59.56
2018-07-05T00:30:34.918Z,59.48
2018-07-05T00:33:01.321Z,59.36
2018-07-05T00:35:27.722Z,59.54
2018-07-05T00:37:54.089Z,59.48
2018-07-05T00:40:20.647Z,59.48
2018-07-05T00:42:47.045Z,59.38
2018-07-05T00:45:13.442Z,59.54
2018-07-05T00:47:39.804Z,59.32
2018-07-05T00:50:06.360Z,59.43
2018-07-05T00:52:32.711Z,59.49
2018-07-05T00:54:59.045Z,59.44
2018-07-05T00:57:25.438Z,59.40
2018-07-05T00:59:51.839Z,59.32
2018-07-05T01:02:18.484Z,59.30
2018-07-05T01:04:44.864Z,59.40
2018-07-05T01:07:11.243Z,59.53
2018-07-05T01:09:37.634Z,60.12
2018-07-05T01:12:04.117Z,60.09
2018-07-05T01:14:30.660Z,59.92
2018-07-05T01:16:57.008Z,60.37
2018-07-05T01:19:23.413Z,60.37
2018-07-05T01:21:49.806Z,60.47
2018-07-05T01:24:16.223Z,60.45
2018-07-05T01:26:42.879Z,60.79
2018-07-05T01:29:09.496Z,60.47
2018-07-05T01:31:35.891Z,60.43
2018-07-05T01:34:02.352Z,60.48
2018-07-05T01:36:28.847Z,60.33
2018-07-05T01:38:55.197Z,60.29
2018-07-05T01:41:21.579Z,60.33
2018-07-05T01:43:48.009Z,59.85
2018-07-05T01:46:14.385Z,60.29
2018-07-05T01:48:40.738Z,60.12
2018-07-05T01:51:07.085Z,60.27
2018-07-05T01:53:33.426Z,60.00
2018-07-05T01:55:59.775Z,60.18
2018-07-05T01:58:26.225Z,59.93
2018-07-05T02:00:52.595Z,59.95
2018-07-05T02:03:19.042Z,59.94
2018-07-05T02:05:45.423Z,59.96
2018-07-05T02:08:11.766Z,59.95
2018-07-05T02:10:39.042Z,59.55
2018-07-05T02:13:05.456Z,59.77
2018-07-05T02:15:31.847Z,59.80
2018-07-05T02:17:58.281Z,59.86
2018-07-05T02:20:24.620Z,59.70
2018-07-05T02:22:51.055Z,59.64
2018-07-05T02:25:17.413Z,59.51
2018-07-05T02:27:43.753Z,59.73
2018-07-05T02:30:10.108Z,59.64
2018-07-05T02:32:36.544Z,59.60
2018-07-05T02:35:02.928Z,59.54
2018-07-05T02:37:29.341Z,59.70
2018-07-05T02:39:55.803Z,59.44
2018-07-05T02:42:22.213Z,59.48
2018-07-05T02:44:48.600Z,59.67
2018-07-05T02:47:14.944Z,59.58
2018-07-05T02:49:41.342Z,59.55
2018-07-05T02:52:07.674Z,59.72
2018-07-05T02:54:34.049Z,59.64
2018-07-05T02:57:00.565Z,59.67
2018-07-05T02:59:26.974Z,59.65
2018-07-05T03:01:53.356Z,59.33
2018-07-05T03:04:19.807Z,58.97
2018-07-05T03:06:46.190Z,58.93
2018-07-05T03:09:12.586Z,58.77
2018-07-05T03:11:39.113Z,58.65
2018-07-05T03:14:05.451Z,58.52
2018-07-05T03:16:31.787Z,58.48
2018-07-05T03:18:58.176Z,58.41
2018-07-05T03:21:24.553Z,58.28
2018-07-05T03:23:51.093Z,58.13
2018-07-05T03:26:17.513Z,58.51
2018-07-05T03:28:43.989Z,58.42
2018-07-05T03:31:10.468Z,58.38
2018-07-05T03:33:36.928Z,58.38
2018-07-05T03:36:03.455Z,58.45
2018-07-05T03:38:29.849Z,58.33
2018-07-05T03:40:56.189Z,58.26
2018-07-05T03:43:22.625Z,58.28
2018-07-05T03:45:49.050Z,58.18
2018-07-05T03:48:15.407Z,58.01
2018-07-05T03:50:41.752Z,58.03
2018-07-05T03:53:08.116Z,57.83
2018-07-05T03:55:34.715Z,57.69
2018-07-05T03:58:01.139Z,57.49
2018-07-05T04:00:27.759Z,57.27
2018-07-05T04:02:54.126Z,57.16
2018-07-05T04:05:20.542Z,57.06
2018-07-05T04:07:46.961Z,56.93
2018-07-05T04:10:13.463Z,57.11
2018-07-05T04:12:39.827Z,56.90
2018-07-05T04:15:06.758Z,56.64
2018-07-05T04:17:33.169Z,56.65
2018-07-05T04:19:59.591Z,56.35
2018-07-05T04:22:26.247Z,56.58
2018-07-05T04:24:52.964Z,56.52
2018-07-05T04:27:19.769Z,56.48
2018-07-05T04:29:46.171Z,56.42
2018-07-05T04:32:15.164Z,56.38
2018-07-05T04:34:41.680Z,56.54
2018-07-05T04:37:08.135Z,56.46
2018-07-05T04:39:34.590Z,56.51
2018-07-05T04:42:01.096Z,56.61
2018-07-05T04:44:27.772Z,56.55
2018-07-05T04:46:54.364Z,56.73
2018-07-05T04:49:21.154Z,56.71
2018-07-05T04:51:47.582Z,56.77
2018-07-05T04:54:13.983Z,56.77
2018-07-05T04:56:40.322Z,56.83
2018-07-05T04:59:06.981Z,56.84
2018-07-05T05:01:33.317Z,56.83
2018-07-05T05:03:59.756Z,56.83
2018-07-05T05:06:26.246Z,57.03
2018-07-05T05:08:52.607Z,56.92
2018-07-05T05:11:19.247Z,56.95
2018-07-05T05:13:45.597Z,57.02
2018-07-05T05:16:12.277Z,56.99
2018-07-05T05:18:38.603Z,57.07
2018-07-05T05:21:05.859Z,57.01
2018-07-05T05:23:32.209Z,57.03
2018-07-05T05:25:58.866Z,57.06
2018-07-05T05:28:25.533Z,57.00
2018-07-05T05:30:52.090Z,57.02
2018-07-05T05:33:18.661Z,56.93
2018-07-05T05:35:45.171Z,56.81
2018-07-05T05:38:11.567Z,57.08
2018-07-05T05:40:38.116Z,57.57
2018-07-05T05:43:04.443Z,56.85
2018-07-05T05:45:31.599Z,56.96
2018-07-05T05:47:58.172Z,56.89
2018-07-05T05:50:24.787Z,56.99
2018-07-05T05:52:51.397Z,56.70
2018-07-05T05:55:18.075Z,56.53
2018-07-05T05:57:44.835Z,56.66
2018-07-05T06:00:11.777Z,56.60
2018-07-05T06:02:38.294Z,56.53
2018-07-05T06:05:04.805Z,56.81
2018-07-05T06:07:31.316Z,56.68
2018-07-05T06:09:57.708Z,56.71
2018-07-05T06:12:24.127Z,56.90
2018-07-05T06:14:50.846Z,56.68
2018-07-05T06:17:17.379Z,56.85
2018-07-05T06:19:44.192Z,57.03
2018-07-05T06:22:10.539Z,56.74
2018-07-05T06:24:37.151Z,56.68
2018-07-05T06:27:03.843Z,56.84
2018-07-05T06:29:31.434Z,56.80
2018-07-05T06:31:58.348Z,56.65
2018-07-05T06:34:24.892Z,56.93
2018-07-05T06:36:51.517Z,56.85
2018-07-05T06:39:18.001Z,57.02
2018-07-05T06:41:44.692Z,56.77
2018-07-05T06:44:11.031Z,56.45
2018-07-05T06:46:37.379Z,56.62
2018-07-05T06:49:03.755Z,56.53
2018-07-05T06:51:30.121Z,56.51
2018-07-05T06:53:56.652Z,56.58
2018-07-05T06:56:23.294Z,56.02
2018-07-05T06:58:49.672Z,56.17
2018-07-05T07:01:16.024Z,56.35
2018-07-05T07:03:42.382Z,56.07
2018-07-05T07:06:08.773Z,56.46
2018-07-05T07:08:35.102Z,56.06
2018-07-05T07:11:01.853Z,55.78
2018-07-05T07:13:28.309Z,55.99
2018-07-05T07:15:54.866Z,55.71
2018-07-05T07:18:21.259Z,55.55
2018-07-05T07:20:47.724Z,55.42
2018-07-05T07:23:14.291Z,55.42
2018-07-05T07:25:40.875Z,55.33
2018-07-05T07:28:07.931Z,55.07
2018-07-05T07:30:35.392Z,55.27
2018-07-05T07:33:01.783Z,54.99
2018-07-05T07:35:28.180Z,54.65
2018-07-05T07:37:54.659Z,54.81
2018-07-05T07:40:21.055Z,54.83
2018-07-05T07:42:47.412Z,54.69
2018-07-05T07:45:14.467Z,54.42
2018-07-05T07:47:40.823Z,54.60
2018-07-05T07:50:07.167Z,54.68
2018-07-05T07:52:33.609Z,54.50
2018-07-05T07:55:00.246Z,54.11
2018-07-05T07:57:26.677Z,54.42
2018-07-05T07:59:53.514Z,54.15
2018-07-05T08:02:20.168Z,54.13
2018-07-05T08:04:46.694Z,54.01
2018-07-05T08:07:13.433Z,53.94
2018-07-05T08:09:39.915Z,54.24
2018-07-05T08:12:06.572Z,54.09
2018-07-05T08:14:33.125Z,54.14
2018-07-05T08:16:59.870Z,54.15
2018-07-05T08:19:26.666Z,53.98
2018-07-05T08:21:53.435Z,53.65
2018-07-05T08:24:20.007Z,53.72
2018-07-05T08:26:46.656Z,53.81
2018-07-05T08:29:13.208Z,53.35
2018-07-05T08:31:39.919Z,53.91
2018-07-05T08:34:06.569Z,53.84
2018-07-05T08:36:33.074Z,53.60
2018-07-05T08:38:59.552Z,53.23
2018-07-05T08:41:25.904Z,53.11
2018-07-05T08:43:52.332Z,53.23
2018-07-05T08:46:18.863Z,53.35
2018-07-05T08:48:45.333Z,53.20
2018-07-05T08:51:12.391Z,53.28
2018-07-05T08:53:39.059Z,53.32
2018-07-05T08:56:05.504Z,53.39
2018-07-05T08:58:31.869Z,53.46
2018-07-05T09:00:58.334Z,53.56
2018-07-05T09:03:24.725Z,53.49
2018-07-05T09:05:51.102Z,53.78
2018-07-05T09:08:17.563Z,53.81
2018-07-05T09:10:43.960Z,53.62
2018-07-05T09:13:10.320Z,53.22
2018-07-05T09:15:36.700Z,53.28
2018-07-05T09:18:03.142Z,53.24
2018-07-05T09:20:29.608Z,53.46
2018-07-05T09:22:56.220Z,53.01
2018-07-05T09:25:22.873Z,53.58
2018-07-05T09:27:49.285Z,53.75
2018-07-05T09:30:15.738Z,53.17
2018-07-05T09:32:42.187Z,53.62
2018-07-05T09:35:08.617Z,53.53
2018-07-05T09:37:35.017Z,53.55
2018-07-05T09:40:01.421Z,53.63
2018-07-05T09:42:27.802Z,53.51
2018-07-05T09:44:54.580Z,53.39
2018-07-05T09:47:21.234Z,52.75
2018-07-05T09:49:48.003Z,53.09
2018-07-05T09:52:14.535Z,52.99
2018-07-05T09:54:41.090Z,53.52
2018-07-05T09:57:07.474Z,52.70
2018-07-05T09:59:34.120Z,52.65
2018-07-05T10:02:00.941Z,53.07
2018-07-05T10:04:27.608Z,52.63
2018-07-05T10:06:54.137Z,53.14
2018-07-05T10:09:20.520Z,52.62
2018-07-05T10:11:47.086Z,52.30
2018-07-05T10:14:13.687Z,52.44
2018-07-05T10:16:40.069Z,52.65
2018-07-05T10:19:06.463Z,52.91
2018-07-05T10:21:32.842Z,53.19
2018-07-05T10:23:59.200Z,52.78
2018-07-05T10:26:25.859Z,52.91
2018-07-05T10:28:52.247Z,53.05
2018-07-05T10:31:18.652Z,52.95
2018-07-05T10:33:45.101Z,52.45
2018-07-05T10:36:11.608Z,52.88
2018-07-05T10:38:38.157Z,52.53
2018-07-05T10:41:04.983Z,52.46
2018-07-05T10:43:31.447Z,52.54
2018-07-05T10:45:57.785Z,52.12
2018-07-05T10:48:24.328Z,52.02
2018-07-05T10:50:50.842Z,52.35
2018-07-05T10:53:17.217Z,52.17
2018-07-05T10:55:43.676Z,52.11
2018-07-05T10:58:10.138Z,51.97
2018-07-05T11:00:36.561Z,52.15
2018-07-05T11:03:02.992Z,50.47
2018-07-05T11:05:29.418Z,51.39
2018-07-05T11:07:55.861Z,50.82
2018-07-05T11:10:22.340Z,51.35
2018-07-05T11:12:48.781Z,51.52
2018-07-05T11:15:15.140Z,51.64
2018-07-05T11:17:41.615Z,51.72
2018-07-05T11:20:08.183Z,51.18
2018-07-05T11:22:34.822Z,51.39
2018-07-05T11:25:01.437Z,51.39
2018-07-05T11:27:28.008Z,50.96
2018-07-05T11:29:54.493Z,51.41
2018-07-05T11:32:21.139Z,51.69
2018-07-05T11:34:47.745Z,51.39
2018-07-05T11:37:14.112Z,51.00
2018-07-05T11:39:40.591Z,50.92
2018-07-05T11:42:06.957Z,51.08
2018-07-05T11:44:33.322Z,50.98
2018-07-05T11:46:59.957Z,50.87
2018-07-05T11:49:26.561Z,51.08
2018-07-05T11:51:53.318Z,50.81
2018-07-05T11:54:19.864Z,50.80
2018-07-05T11:56:46.659Z,50.82
2018-07-05T11:59:13.533Z,50.62
2018-07-05T12:01:40.159Z,50.65
2018-07-05T12:04:06.825Z,50.29
2018-07-05T12:06:33.597Z,50.61
2018-07-05T12:09:00.406Z,50.47
2018-07-05T12:11:27.292Z,50.50
2018-07-05T12:13:53.970Z,50.50
2018-07-05T12:16:20.550Z,50.40
2018-07-05T12:18:47.569Z,50.53
2018-07-05T12:21:14.835Z,50.53
2018-07-05T12:23:41.878Z,50.46
2018-07-05T12:26:08.813Z,49.85
2018-07-05T12:28:36.441Z,50.08
2018-07-05T12:31:03.586Z,49.67
2018-07-05T12:33:30.457Z,49.79
2018-07-05T12:35:57.480Z,49.93
2018-07-05T12:38:24.883Z,49.85
2018-07-05T12:40:53.139Z,49.82
2018-07-05T12:43:19.907Z,49.31
2018-07-05T12:45:46.917Z,49.63
2018-07-05T12:48:13.826Z,48.99
2018-07-05T12:50:40.517Z,49.31
2018-07-05T12:53:07.145Z,49.08
2018-07-05T12:55:33.607Z,49.11
2018-07-05T12:58:00.480Z,48.97
2018-07-05T13:00:26.947Z,48.87
2018-07-05T13:02:53.329Z,48.88
2018-07-05T13:05:20.074Z,48.43
2018-07-05T13:07:46.455Z,48.78
2018-07-05T13:10:16.326Z,48.34
2018-07-05T13:12:43.375Z,48.09
2018-07-05T13:15:09.926Z,48.37
2018-07-05T13:17:36.384Z,48.37
2018-07-05T13:20:02.761Z,48.37
2018-07-05T13:22:29.088Z,48.26
2018-07-05T13:24:55.536Z,47.83
2018-07-05T13:27:22.111Z,47.92
2018-07-05T13:29:48.690Z,48.41
2018-07-05T13:32:15.363Z,47.76
2018-07-05T13:34:41.852Z,48.01
2018-07-05T13:37:08.283Z,48.09
2018-07-05T13:39:35.053Z,48.08
2018-07-05T13:42:01.448Z,47.67
2018-07-05T13:44:27.864Z,47.47
2018-07-05T13:46:54.346Z,47.35
2018-07-05T13:49:20.802Z,47.61
2018-07-05T13:51:47.241Z,47.48
2018-07-05T13:54:13.592Z,47.30
2018-07-05T13:56:40.011Z,46.96
2018-07-05T13:59:06.634Z,47.02
2018-07-05T14:01:34.085Z,47.09
2018-07-05T14:04:00.432Z,46.67
2018-07-05T14:06:26.836Z,47.12
2018-07-05T14:08:53.328Z,46.80
2018-07-05T14:11:19.864Z,46.81
2018-07-05T14:13:46.261Z,46.96
2018-07-05T14:16:12.601Z,46.98
2018-07-05T14:18:39.095Z,46.66
2018-07-05T14:21:05.594Z,46.51
2018-07-05T14:23:31.914Z,46.49
2018-07-05T14:25:58.271Z,46.73
2018-07-05T14:28:24.717Z,45.97
2018-07-05T14:30:51.068Z,46.12
2018-07-05T14:33:17.403Z,46.29
2018-07-05T14:35:43.791Z,46.34
2018-07-05T14:38:10.129Z,45.92
2018-07-05T14:40:36.492Z,45.76
2018-07-05T14:43:03.043Z,45.54
2018-07-05T14:45:29.373Z,45.51
2018-07-05T14:47:55.774Z,46.20
2018-07-05T14:50:22.172Z,45.43
2018-07-05T14:52:48.606Z,45.55
2018-07-05T14:55:15.110Z,45.25
2018-07-05T14:57:41.445Z,45.99
2018-07-05T15:00:07.804Z,45.87
2018-07-05T15:05:06.838Z,45.61
2018-07-05T15:07:33.194Z,45.37
2018-07-05T15:09:59.527Z,45.60
2018-07-05T15:12:25.950Z,45.51
2018-07-05T15:14:52.340Z,45.43
2018-07-05T15:17:18.672Z,45.59
2018-07-05T15:19:45.044Z,45.33
2018-07-05T15:22:11.378Z,45.48
2018-07-05T15:24:37.716Z,45.76
2018-07-05T15:27:04.058Z,45.77
2018-07-05T15:29:30.439Z,45.70
2018-07-05T15:31:56.853Z,45.41
2018-07-05T15:34:23.611Z,45.63
2018-07-05T15:36:50.349Z,45.48
2018-07-05T15:39:17.023Z,45.64
2018-07-05T15:41:43.546Z,45.54
2018-07-05T15:44:10.100Z,45.70
2018-07-05T15:46:36.824Z,45.70
2018-07-05T15:49:03.269Z,45.75
2018-07-05T15:51:29.810Z,45.86
2018-07-05T15:53:56.590Z,45.78
2018-07-05T15:56:23.007Z,45.67
2018-07-05T15:58:49.584Z,45.80
2018-07-05T16:01:16.281Z,45.73
2018-07-05T16:03:43.032Z,46.05
2018-07-05T16:06:09.421Z,45.68
2018-07-05T16:08:35.968Z,45.54
2018-07-05T16:11:02.356Z,45.77
2018-07-05T16:13:28.714Z,45.64
2018-07-05T16:15:55.354Z,45.57
2018-07-05T16:18:22.299Z,45.57
2018-07-05T16:20:48.950Z,45.54
2018-07-05T16:23:15.773Z,45.57
2018-07-05T16:25:42.292Z,45.44
2018-07-05T16:28:08.732Z,45.59
2018-07-05T16:30:35.316Z,45.46
2018-07-05T16:33:02.080Z,45.51
2018-07-05T16:35:28.890Z,45.69
2018-07-05T16:37:55.676Z,45.65
2018-07-05T16:40:22.319Z,45.66
2018-07-05T16:42:49.227Z,45.71
2018-07-05T16:45:15.743Z,45.69
2018-07-05T16:47:42.212Z,45.79
2018-07-05T16:50:08.711Z,45.83
2018-07-05T16:52:35.404Z,45.93
2018-07-05T16:55:02.292Z,45.93
2018-07-05T16:57:29.083Z,45.94
2018-07-05T16:59:55.675Z,46.13
2018-07-05T17:02:22.467Z,46.24
2018-07-05T17:04:49.249Z,46.16
2018-07-05T17:07:15.879Z,46.16
2018-07-05T17:09:42.255Z,46.19
2018-07-05T17:12:08.753Z,46.18
2018-07-05T17:14:35.223Z,46.06
2018-07-05T17:17:01.776Z,45.89
2018-07-05T17:19:28.236Z,45.75
2018-07-05T17:21:54.953Z,45.74
2018-07-05T17:24:21.621Z,45.64
2018-07-05T17:26:48.127Z,45.62
2018-07-05T17:29:14.530Z,45.61
2018-07-05T17:31:41.262Z,45.90
2018-07-05T17:34:08.074Z,45.80
2018-07-05T17:36:34.766Z,46.46
2018-07-05T17:39:01.560Z,45.98
2018-07-05T17:41:28.197Z,46.02
2018-07-05T17:43:55.154Z,47.01
2018-07-05T17:46:21.895Z,46.38
2018-07-05T17:48:48.279Z,47.34
2018-07-05T17:51:14.604Z,47.50
2018-07-05T17:53:40.948Z,47.22
2018-07-05T17:56:07.445Z,48.54
2018-07-05T17:58:33.867Z,48.16
2018-07-05T18:01:00.303Z,47.97
2018-07-05T18:03:26.652Z,48.37
2018-07-05T18:05:53.040Z,48.52
2018-07-05T18:08:19.429Z,48.54
2018-07-05T18:10:45.806Z,48.51
2018-07-05T18:13:12.321Z,48.64
2018-07-05T18:15:38.643Z,48.82
2018-07-05T18:18:04.971Z,48.69
2018-07-05T18:20:31.352Z,48.99
2018-07-05T18:22:57.881Z,49.02
2018-07-05T18:25:24.221Z,49.16
2018-07-05T18:27:50.834Z,49.12
2018-07-05T18:30:17.141Z,48.90
2018-07-05T18:32:43.474Z,48.83
2018-07-05T18:35:09.987Z,48.93
2018-07-05T18:37:36.445Z,48.60
2018-07-05T18:40:02.795Z,48.57
2018-07-05T18:42:29.193Z,48.81
2018-07-05T18:44:55.683Z,49.57
2018-07-05T18:47:22.012Z,49.46
2018-07-05T18:49:48.370Z,49.23
2018-07-05T18:52:14.696Z,49.15
2018-07-05T18:54:41.072Z,49.20
2018-07-05T18:57:07.467Z,49.40
2018-07-05T18:59:33.842Z,49.13
2018-07-05T19:02:00.284Z,48.98
2018-07-05T19:04:26.765Z,49.01
2018-07-05T19:06:53.485Z,49.01
2018-07-05T19:09:19.952Z,48.95
2018-07-05T19:11:46.332Z,48.90
2018-07-05T19:14:12.678Z,48.99
2018-07-05T19:16:39.066Z,49.04
2018-07-05T19:19:05.365Z,49.03
2018-07-05T19:21:31.860Z,49.13
2018-07-05T19:23:58.194Z,49.07
2018-07-05T19:26:24.538Z,49.15
2018-07-05T19:28:51.028Z,49.26
2018-07-05T19:31:17.344Z,49.23
2018-07-05T19:33:43.736Z,49.29
2018-07-05T19:36:10.090Z,49.37
2018-07-05T19:38:36.713Z,49.45
2018-07-05T19:41:03.167Z,49.53
2018-07-05T19:43:29.525Z,49.53
2018-07-05T19:45:55.998Z,49.48
2018-07-05T19:48:22.374Z,49.47
2018-07-05T19:50:48.695Z,49.59
2018-07-05T19:53:15.043Z,49.67
2018-07-05T19:55:41.456Z,49.73
2018-07-05T19:58:07.874Z,49.67
2018-07-05T20:00:34.262Z,49.81
2018-07-05T20:03:00.542Z,49.79
2018-07-05T20:05:26.888Z,49.93
2018-07-05T20:07:53.241Z,49.85
2018-07-05T20:10:19.569Z,50.00
2018-07-05T20:12:45.908Z,50.02
2018-07-05T20:15:12.268Z,50.07
2018-07-05T20:17:38.591Z,50.07
2018-07-05T20:20:04.923Z,49.86
2018-07-05T20:22:31.260Z,50.01
2018-07-05T20:24:57.570Z,50.11
2018-07-05T20:27:23.887Z,50.09
2018-07-05T20:29:50.298Z,50.14
2018-07-05T20:32:16.681Z,50.11
2018-07-05T20:34:43.015Z,50.15
2018-07-05T20:37:09.351Z,50.17
2018-07-05T20:39:35.862Z,49.79
2018-07-05T20:42:02.466Z,50.15
2018-07-05T20:44:28.848Z,50.16
2018-07-05T20:46:55.269Z,50.10
2018-07-05T20:49:21.728Z,50.17
2018-07-05T20:51:48.243Z,49.67
2018-07-05T20:54:14.695Z,49.76
2018-07-05T20:56:42.637Z,50.11
2018-07-05T20:59:09.096Z,50.15
2018-07-05T21:01:35.525Z,49.55
2018-07-05T21:04:01.898Z,49.63
2018-07-05T21:06:28.267Z,49.78
2018-07-05T21:08:54.914Z,49.78
2018-07-05T21:11:21.337Z,50.23
2018-07-05T21:13:48.197Z,50.16
2018-07-05T21:16:14.640Z,49.96
2018-07-05T21:18:40.987Z,49.96
2018-07-05T21:21:07.565Z,49.98
2018-07-05T21:23:34.203Z,50.23
2018-07-05T21:26:00.527Z,50.27
2018-07-05T21:28:27.259Z,50.22
2018-07-05T21:30:53.693Z,50.11
2018-07-05T21:33:20.024Z,50.04
2018-07-05T21:35:46.688Z,50.20
2018-07-05T21:38:13.423Z,49.89
2018-07-05T21:40:40.005Z,50.13
2018-07-05T21:43:06.335Z,50.17
2018-07-05T21:45:32.959Z,49.86
2018-07-05T21:47:59.312Z,49.82
2018-07-05T21:50:25.639Z,49.78
2018-07-05T21:52:52.254Z,49.79
2018-07-05T21:55:18.661Z,49.81
2018-07-05T21:57:45.113Z,50.11
2018-07-05T22:00:11.468Z,49.76
2018-07-05T22:02:37.899Z,49.75
2018-07-05T22:05:04.312Z,49.76
2018-07-05T22:07:30.713Z,50.11
2018-07-05T22:09:57.487Z,50.22
2018-07-05T22:12:23.837Z,50.24
2018-07-05T22:14:50.258Z,50.08
2018-07-05T22:17:16.762Z,50.25
2018-07-05T22:19:43.263Z,50.30
2018-07-05T22:22:09.729Z,49.96
2018-07-05T22:24:36.089Z,50.10
2018-07-05T22:27:02.542Z,50.11
2018-07-05T22:29:28.870Z,50.37
2018-07-05T22:31:55.263Z,50.24
2018-07-05T22:34:21.709Z,50.21
2018-07-05T22:36:48.518Z,50.13
2018-07-05T22:39:14.908Z,49.99
2018-07-05T22:41:41.253Z,50.14
2018-07-05T22:44:07.706Z,50.26
2018-07-05T22:46:34.369Z,50.15
2018-07-05T22:49:01.009Z,49.98
2018-07-05T22:51:27.347Z,49.92
2018-07-05T22:53:53.972Z,50.04
2018-07-05T22:56:20.335Z,50.07
2018-07-05T22:58:46.934Z,50.03
2018-07-05T23:01:13.345Z,50.28
2018-07-05T23:03:40.037Z,50.13
2018-07-05T23:06:06.416Z,50.35
2018-07-05T23:08:32.766Z,50.08
2018-07-05T23:10:59.132Z,50.37
2018-07-05T23:13:25.805Z,50.18
2018-07-05T23:15:52.202Z,50.24
2018-07-05T23:18:18.568Z,50.37
2018-07-05T23:20:45.189Z,50.38
2018-07-05T23:23:11.536Z,50.28
2018-07-05T23:25:38.115Z,50.19
2018-07-05T23:28:04.532Z,50.24
2018-07-05T23:30:31.067Z,50.24
2018-07-05T23:32:57.429Z,50.40
2018-07-05T23:35:24.261Z,50.31
2018-07-05T23:37:50.619Z,50.33
2018-07-05T23:40:17.025Z,50.50
2018-07-05T23:42:43.410Z,50.45
2018-07-05T23:45:09.778Z,50.44
2018-07-05T23:47:36.116Z,50.40
2018-07-05T23:50:02.736Z,50.30
2018-07-05T23:52:29.474Z,50.40
2018-07-05T23:54:55.815Z,50.38
2018-07-05T23:57:22.278Z,50.54
2018-07-05T23:59:49.032Z,50.61
